Time;durP1;ratioP1;P1;durP2;ratioP2;P2;SDS_P1;SDS_P2;PMS_P1;PMS_P2;Temp;Humidity;BMP_temperature;BMP_pressure;BME280_temperature;BME280_humidity;BME280_pressure;Samples;Min_cycle;Max_cycle;Signal;HPM_P1;HPM_P2
2022/01/20 06:36:57;;;;;;;21.40;2.72;;;;;;;;;;5478931;24;20474;-81
2022/01/20 06:39:24;;;;;;;18.48;2.03;;;;;;;;;;4834443;29;21490;-81
2022/01/20 06:41:52;;;;;;;13.33;2.00;;;;;;;;;;4860950;29;20081;-81
2022/01/20 06:44:20;;;;;;;14.07;3.05;;;;;;;;;;4853777;29;20294;-79
2022/01/20 06:46:48;;;;;;;15.20;2.35;;;;;;;;;;4854132;29;20514;-78
2022/01/20 06:49:17;;;;;;;19.45;2.63;;;;;;;;;;4856839;29;20517;-82
2022/01/20 06:51:45;;;;;;;19.33;2.42;;;;;;;;;;4856999;29;20076;-80
2022/01/20 06:54:14;;;;;;;15.73;1.70;;;;;;;;;;4855877;29;20060;-79
2022/01/20 06:56:44;;;;;;;18.27;2.28;;;;;;;;;;4856945;29;20077;-80
2022/01/20 06:59:14;;;;;;;12.43;2.00;;;;;;;;;;4856757;29;20113;-81
2022/01/20 07:01:42;;;;;;;12.07;1.70;;;;;;;;;;4858365;29;20415;-80
2022/01/20 07:04:10;;;;;;;13.05;2.28;;;;;;;;;;4858203;29;20049;-79
2022/01/20 07:06:37;;;;;;;10.45;2.33;;;;;;;;;;4857040;29;20049;-81
2022/01/20 07:09:04;;;;;;;12.70;2.05;;;;;;;;;;4842808;29;20110;-80
2022/01/20 07:11:31;;;;;;;16.35;2.55;;;;;;;;;;4856730;29;20117;-82
2022/01/20 07:13:58;;;;;;;11.48;1.95;;;;;;;;;;4856604;29;20392;-80
2022/01/20 07:16:25;;;;;;;14.48;1.83;;;;;;;;;;4859222;29;20052;-79
2022/01/20 07:18:53;;;;;;;14.93;2.00;;;;;;;;;;4857762;29;20057;-80
2022/01/20 07:21:20;;;;;;;16.90;1.98;;;;;;;;;;4856281;29;20050;-79
2022/01/20 07:23:46;;;;;;;16.35;1.75;;;;;;;;;;4856659;29;20069;-77
2022/01/20 07:26:13;;;;;;;19.88;2.38;;;;;;;;;;4857703;29;20058;-78
2022/01/20 07:28:40;;;;;;;14.88;1.95;;;;;;;;;;4858147;29;20053;-79
2022/01/20 07:31:08;;;;;;;11.00;1.95;;;;;;;;;;4857588;29;20094;-81
2022/01/20 07:33:35;;;;;;;16.55;2.10;;;;;;;;;;4856293;29;20493;-81
2022/01/20 07:36:03;;;;;;;16.88;2.05;;;;;;;;;;4855479;29;20430;-79
2022/01/20 07:38:31;;;;;;;14.20;2.65;;;;;;;;;;4856203;29;20050;-79
2022/01/20 07:40:58;;;;;;;13.82;2.63;;;;;;;;;;4856016;29;20129;-79
2022/01/20 07:43:25;;;;;;;17.00;2.05;;;;;;;;;;4841655;29;20113;-79
2022/01/20 07:45:51;;;;;;;12.60;2.10;;;;;;;;;;4856449;29;20061;-79
2022/01/20 07:48:18;;;;;;;15.45;2.80;;;;;;;;;;4855852;29;20038;-79
2022/01/20 07:50:45;;;;;;;13.02;2.15;;;;;;;;;;4855677;29;20847;-79
2022/01/20 07:53:11;;;;;;;20.55;2.53;;;;;;;;;;4855485;29;20054;-79
2022/01/20 07:55:39;;;;;;;14.80;2.35;;;;;;;;;;4857416;29;20057;-79
2022/01/20 07:58:06;;;;;;;12.75;2.80;;;;;;;;;;4856446;29;20439;-79
2022/01/20 08:00:33;;;;;;;25.27;3.13;;;;;;;;;;4855510;29;20109;-79
2022/01/20 08:03:00;;;;;;;10.52;3.00;;;;;;;;;;4855309;29;20141;-79
2022/01/20 08:05:27;;;;;;;17.67;3.17;;;;;;;;;;4854942;29;20042;-79
2022/01/20 08:07:53;;;;;;;16.58;2.42;;;;;;;;;;4856464;29;20050;-79
2022/01/20 08:10:20;;;;;;;17.77;2.83;;;;;;;;;;4857908;29;20049;-79
2022/01/20 08:12:47;;;;;;;26.63;7.47;;;;;;;;;;4855151;29;20527;-79
2022/01/20 08:15:15;;;;;;;14.30;3.80;;;;;;;;;;4854658;29;20050;-79
2022/01/20 08:17:43;;;;;;;17.60;5.63;;;;;;;;;;4855205;29;20056;-79
2022/01/20 08:20:11;;;;;;;18.05;4.00;;;;;;;;;;4854696;29;20053;-79
2022/01/20 08:22:37;;;;;;;16.15;2.88;;;;;;;;;;4841026;29;20537;-80
2022/01/20 08:25:05;;;;;;;16.60;2.90;;;;;;;;;;4855959;29;20058;-79
2022/01/20 08:27:32;;;;;;;14.07;2.20;;;;;;;;;;4854531;29;20049;-79
2022/01/20 08:30:00;;;;;;;12.55;2.22;;;;;;;;;;4855049;29;20050;-79
2022/01/20 08:32:26;;;;;;;11.85;2.00;;;;;;;;;;4856037;29;20510;-79
2022/01/20 08:34:53;;;;;;;14.27;2.50;;;;;;;;;;4854581;29;20052;-79
2022/01/20 08:37:20;;;;;;;11.60;2.40;;;;;;;;;;4853597;29;20057;-79
2022/01/20 08:39:46;;;;;;;16.38;2.20;;;;;;;;;;4854649;29;20045;-79
2022/01/20 08:42:13;;;;;;;14.10;1.90;;;;;;;;;;4854144;29;20093;-79
2022/01/20 08:44:41;;;;;;;10.02;2.40;;;;;;;;;;4856160;29;20600;-80
2022/01/20 08:47:19;;;;;;;13.57;1.83;;;;;;;;;;4854477;29;20060;-79
2022/01/20 08:49:48;;;;;;;13.60;2.30;;;;;;;;;;4856044;29;20092;-80
2022/01/20 08:52:16;;;;;;;10.52;2.25;;;;;;;;;;4855457;29;20045;-80
2022/01/20 08:54:45;;;;;;;10.20;1.55;;;;;;;;;;4854361;29;20102;-79
2022/01/20 08:57:16;;;;;;;12.95;1.77;;;;;;;;;;4853955;29;20534;-79
2022/01/20 08:59:43;;;;;;;11.55;1.80;;;;;;;;;;4854240;29;20105;-80
2022/01/20 09:02:11;;;;;;;18.13;1.98;;;;;;;;;;4853752;29;20084;-80
2022/01/20 09:04:38;;;;;;;10.53;2.13;;;;;;;;;;4855704;29;20056;-79
2022/01/20 09:07:05;;;;;;;9.88;1.55;;;;;;;;;;4857399;29;20294;-80
2022/01/20 09:09:39;;;;;;;14.32;1.95;;;;;;;;;;4854650;29;20057;-79
2022/01/20 09:17:24;;;;;;;11.63;1.95;;;;;;;;;;4863135;29;23010;-80
2022/01/20 09:19:51;;;;;;;11.88;1.48;;;;;;;;;;4862972;29;20057;-81
2022/01/20 09:22:18;;;;;;;11.23;1.65;;;;;;;;;;4849285;29;20639;-81
2022/01/20 09:24:45;;;;;;;14.85;2.97;;;;;;;;;;4862595;29;20053;-82
2022/01/20 09:27:14;;;;;;;17.10;2.00;;;;;;;;;;4862917;29;20463;-80
2022/01/20 09:29:41;;;;;;;17.10;2.15;;;;;;;;;;4860472;29;20064;-82
2022/01/20 09:32:12;;;;;;;11.77;1.80;;;;;;;;;;4862013;29;20049;-81
2022/01/20 09:34:39;;;;;;;16.00;1.95;;;;;;;;;;4862418;29;20050;-81
2022/01/20 09:37:06;;;;;;;20.15;2.25;;;;;;;;;;4864162;29;20595;-81
2022/01/20 09:39:34;;;;;;;15.95;1.92;;;;;;;;;;4863405;29;20474;-81
2022/01/20 09:42:01;;;;;;;11.70;2.00;;;;;;;;;;4862472;29;20144;-81
2022/01/20 09:44:28;;;;;;;11.65;1.83;;;;;;;;;;4858598;29;20060;-80
2022/01/20 09:46:55;;;;;;;11.18;1.80;;;;;;;;;;4861084;29;20046;-81
2022/01/20 09:49:21;;;;;;;14.02;1.92;;;;;;;;;;4864618;29;20122;-81
2022/01/20 09:51:48;;;;;;;13.32;1.85;;;;;;;;;;4864442;29;20081;-81
2022/01/20 09:54:15;;;;;;;13.73;1.60;;;;;;;;;;4861503;29;20519;-81
2022/01/20 09:56:44;;;;;;;13.88;2.35;;;;;;;;;;4859365;29;20049;-81
2022/01/20 09:59:12;;;;;;;14.63;2.20;;;;;;;;;;4863464;29;20050;-81
2022/01/20 10:01:44;;;;;;;12.93;2.08;;;;;;;;;;4861388;29;20104;-81
2022/01/20 10:04:30;;;;;;;16.40;1.85;;;;;;;;;;4863085;29;20104;-81
2022/01/20 10:07:08;;;;;;;13.90;1.80;;;;;;;;;;4863464;29;20135;-81
2022/01/20 10:09:39;;;;;;;14.90;2.20;;;;;;;;;;4861170;29;20056;-81
2022/01/20 10:12:09;;;;;;;14.20;1.90;;;;;;;;;;4859655;29;20685;-81
2022/01/20 10:14:44;;;;;;;11.48;2.00;;;;;;;;;;4862216;29;20590;-80
2022/01/20 10:17:21;;;;;;;13.88;2.47;;;;;;;;;;4862895;29;20050;-79
2022/01/20 10:19:53;;;;;;;14.18;2.25;;;;;;;;;;4862463;29;20599;-80
2022/01/20 10:22:24;;;;;;;11.10;1.70;;;;;;;;;;4862214;29;20548;-80
2022/01/20 10:25:02;;;;;;;15.63;2.13;;;;;;;;;;4865346;29;20565;-80
2022/01/20 10:27:31;;;;;;;12.65;2.25;;;;;;;;;;4861741;29;20049;-80
2022/01/20 10:30:02;;;;;;;19.20;2.10;;;;;;;;;;4865378;29;20077;-80
2022/01/20 10:32:43;;;;;;;13.48;2.30;;;;;;;;;;4866201;29;20053;-80
2022/01/20 10:35:11;;;;;;;16.50;1.75;;;;;;;;;;4865969;29;20053;-80
2022/01/20 10:37:40;;;;;;;15.52;2.30;;;;;;;;;;4865463;29;20076;-80
2022/01/20 10:40:16;;;;;;;9.93;1.60;;;;;;;;;;4865323;29;20046;-80
2022/01/20 10:42:46;;;;;;;12.48;1.73;;;;;;;;;;4864674;29;20083;-80
2022/01/20 10:45:30;;;;;;;9.60;1.77;;;;;;;;;;4865070;29;20526;-81
2022/01/20 10:47:59;;;;;;;13.88;1.58;;;;;;;;;;4864039;29;20515;-81
2022/01/20 10:50:31;;;;;;;12.30;1.90;;;;;;;;;;4842503;29;20105;-81
2022/01/20 10:52:58;;;;;;;12.60;2.00;;;;;;;;;;4854819;29;20053;-80
2022/01/20 10:55:30;;;;;;;15.27;2.03;;;;;;;;;;4860587;29;20157;-80
2022/01/20 10:58:15;;;;;;;14.35;1.88;;;;;;;;;;4859826;29;20114;-81
2022/01/20 11:00:48;;;;;;;13.32;2.15;;;;;;;;;;4861650;29;20052;-80
2022/01/20 11:03:16;;;;;;;12.93;2.05;;;;;;;;;;4863246;29;20465;-80
2022/01/20 11:05:48;;;;;;;12.77;1.88;;;;;;;;;;4858673;29;20056;-79
2022/01/20 11:08:15;;;;;;;13.77;2.13;;;;;;;;;;4859448;29;20067;-79
2022/01/20 11:10:43;;;;;;;17.38;1.73;;;;;;;;;;4860915;29;20053;-80
2022/01/20 11:13:11;;;;;;;19.33;3.03;;;;;;;;;;4861691;29;20510;-80
2022/01/20 11:15:43;;;;;;;22.58;3.28;;;;;;;;;;4859570;29;20144;-81
2022/01/20 11:18:11;;;;;;;12.93;2.00;;;;;;;;;;4861424;29;20080;-80
2022/01/20 11:20:46;;;;;;;13.77;2.10;;;;;;;;;;4843539;29;20423;-81
2022/01/20 11:23:13;;;;;;;13.10;2.00;;;;;;;;;;4859014;29;20620;-81
2022/01/20 11:25:43;;;;;;;13.10;1.80;;;;;;;;;;4860165;29;20064;-81
2022/01/20 11:28:16;;;;;;;15.75;2.65;;;;;;;;;;4847564;29;20109;-81
2022/01/20 11:31:04;;;;;;;17.45;2.45;;;;;;;;;;4872958;29;20049;-81
2022/01/20 11:33:42;;;;;;;11.23;2.13;;;;;;;;;;4872289;29;20049;-80
2022/01/20 11:36:21;;;;;;;11.53;2.17;;;;;;;;;;4865417;29;20418;-81
2022/01/20 11:39:09;;;;;;;10.75;1.85;;;;;;;;;;4866542;29;20373;-80
2022/01/20 11:41:48;;;;;;;15.07;2.10;;;;;;;;;;4844914;29;20152;-80
2022/01/20 11:44:20;;;;;;;12.45;1.77;;;;;;;;;;4865581;29;20514;-80
2022/01/20 11:46:49;;;;;;;15.05;2.17;;;;;;;;;;4872569;29;20080;-79
2022/01/20 11:49:21;;;;;;;17.23;2.33;;;;;;;;;;4873096;29;20053;-79
2022/01/20 11:51:56;;;;;;;14.43;2.05;;;;;;;;;;4871760;29;20067;-80
2022/01/20 11:54:36;;;;;;;25.23;2.88;;;;;;;;;;4872420;29;20052;-82
2022/01/20 11:57:20;;;;;;;11.82;1.98;;;;;;;;;;4855798;29;20160;-80
2022/01/20 11:59:51;;;;;;;20.00;2.15;;;;;;;;;;4872202;29;20132;-82
2022/01/20 12:02:32;;;;;;;16.35;2.28;;;;;;;;;;4871414;29;20790;-83
2022/01/20 12:05:04;;;;;;;13.07;2.50;;;;;;;;;;4867523;29;20410;-83
2022/01/20 12:07:33;;;;;;;16.38;2.45;;;;;;;;;;4869763;29;20897;-82
2022/01/20 12:10:37;;;;;;;12.93;2.83;;;;;;;;;;4872340;29;20053;-84
2022/01/20 12:13:07;;;;;;;13.18;2.60;;;;;;;;;;4811349;29;20069;-83
2022/01/20 12:15:53;;;;;;;14.93;2.78;;;;;;;;;;4795987;29;20050;-84
2022/01/20 12:18:20;;;;;;;12.80;2.10;;;;;;;;;;4795837;29;20054;-84
2022/01/20 12:20:46;;;;;;;13.27;2.10;;;;;;;;;;4796351;29;20073;-84
2022/01/20 12:23:13;;;;;;;15.63;2.60;;;;;;;;;;4796510;29;20055;-84
2022/01/20 12:25:40;;;;;;;18.17;3.10;;;;;;;;;;4796370;29;20054;-84
2022/01/20 12:28:11;;;;;;;11.65;2.15;;;;;;;;;;4797577;29;20058;-81
2022/01/20 12:30:47;;;;;;;14.77;2.45;;;;;;;;;;4802785;29;20088;-83
2022/01/20 12:33:22;;;;;;;15.68;3.00;;;;;;;;;;4809247;29;20111;-82
2022/01/20 12:35:50;;;;;;;18.90;2.70;;;;;;;;;;4813804;29;20264;-83
2022/01/20 12:38:30;;;;;;;20.05;2.58;;;;;;;;;;4812600;29;20050;-83
2022/01/20 12:41:06;;;;;;;15.50;2.97;;;;;;;;;;4812483;29;20050;-82
2022/01/20 12:43:55;;;;;;;13.20;2.60;;;;;;;;;;4797940;29;20066;-81
2022/01/20 12:46:25;;;;;;;27.10;3.55;;;;;;;;;;4790352;29;20515;-84
2022/01/20 12:48:54;;;;;;;15.98;2.30;;;;;;;;;;4850057;29;20053;-83
2022/01/20 12:51:36;;;;;;;15.57;2.42;;;;;;;;;;4851362;29;20511;-84
2022/01/20 12:54:05;;;;;;;18.20;2.75;;;;;;;;;;4858386;29;20130;-83
2022/01/20 12:56:35;;;;;;;17.88;2.97;;;;;;;;;;4860562;29;20057;-83
2022/01/20 12:59:03;;;;;;;17.17;2.72;;;;;;;;;;4858935;29;20053;-82
2022/01/20 13:01:50;;;;;;;16.35;2.63;;;;;;;;;;4859936;29;20558;-85
2022/01/20 13:04:22;;;;;;;17.73;2.78;;;;;;;;;;4836107;29;20528;-84
2022/01/20 13:06:55;;;;;;;11.60;2.58;;;;;;;;;;4843275;29;20052;-84
2022/01/20 13:09:25;;;;;;;11.90;2.53;;;;;;;;;;4844321;29;20046;-84
2022/01/20 13:12:02;;;;;;;17.92;3.33;;;;;;;;;;4865679;29;20052;-84
2022/01/20 13:14:33;;;;;;;13.07;1.98;;;;;;;;;;4852550;29;20053;-85
2022/01/20 13:17:03;;;;;;;12.75;2.17;;;;;;;;;;4869961;29;20052;-85
2022/01/20 13:19:37;;;;;;;;;;;;;;;;;;4854568;29;20056;-84
2022/01/20 13:22:07;;;;;;;17.45;2.60;;;;;;;;;;4871406;29;19935;-85
2022/01/20 13:24:35;;;;;;;17.65;3.30;;;;;;;;;;4870594;29;20422;-84
2022/01/20 13:27:08;;;;;;;17.48;2.42;;;;;;;;;;4869868;29;20052;-84
2022/01/20 13:29:49;;;;;;;18.38;2.42;;;;;;;;;;4862904;29;20148;-84
2022/01/20 13:32:17;;;;;;;17.77;2.60;;;;;;;;;;4854781;29;20144;-83
2022/01/20 13:34:57;;;;;;;18.60;2.40;;;;;;;;;;4851521;29;20064;-83
2022/01/20 13:37:25;;;;;;;16.33;2.60;;;;;;;;;;4866156;29;20065;-84
2022/01/20 13:39:56;;;;;;;15.52;2.35;;;;;;;;;;4843773;29;20091;-83
2022/01/20 13:45:13;;;;;;;15.98;2.67;;;;;;;;;;4846455;29;20046;-84
2022/01/20 13:47:47;;;;;;;14.18;2.20;;;;;;;;;;4865563;29;20058;-84
2022/01/20 13:50:37;;;;;;;15.23;2.30;;;;;;;;;;4851154;29;20053;-84
2022/01/20 13:53:20;;;;;;;12.93;2.38;;;;;;;;;;4851282;29;20048;-84
2022/01/20 13:55:48;;;;;;;12.25;2.20;;;;;;;;;;4845378;29;20061;-82
2022/01/20 13:58:26;;;;;;;20.05;2.50;;;;;;;;;;4852175;29;20795;-83
2022/01/20 14:00:55;;;;;;;11.48;2.05;;;;;;;;;;4851494;29;20057;-84
2022/01/20 14:03:22;;;;;;;;;;;;;;;;;;4851159;29;20053;-83
2022/01/20 14:05:52;;;;;;;18.60;2.28;;;;;;;;;;4852388;29;19928;-83
2022/01/20 14:08:19;;;;;;;11.70;1.90;;;;;;;;;;4849452;29;20485;-85
2022/01/20 14:10:46;;;;;;;13.25;2.03;;;;;;;;;;4852150;29;20061;-84
2022/01/20 14:13:13;;;;;;;18.30;2.22;;;;;;;;;;4852211;29;20589;-84
2022/01/20 14:15:43;;;;;;;10.60;2.50;;;;;;;;;;4851651;29;20144;-84
2022/01/20 14:18:10;;;;;;;9.75;1.90;;;;;;;;;;4851003;29;20053;-83
2022/01/20 14:20:42;;;;;;;17.63;2.33;;;;;;;;;;4852060;29;20057;-84
2022/01/20 14:23:09;;;;;;;21.80;2.22;;;;;;;;;;4839179;29;20042;-83
2022/01/20 14:25:36;;;;;;;16.02;2.67;;;;;;;;;;4846158;29;20065;-83
2022/01/20 14:28:03;;;;;;;12.63;2.08;;;;;;;;;;4847287;29;20060;-84
2022/01/20 14:30:31;;;;;;;12.32;1.90;;;;;;;;;;4851577;29;20053;-83
2022/01/20 14:32:59;;;;;;;21.60;3.13;;;;;;;;;;4852127;29;20054;-84
2022/01/20 14:35:28;;;;;;;14.23;2.45;;;;;;;;;;4851180;29;20065;-83
2022/01/20 14:38:15;;;;;;;14.07;2.42;;;;;;;;;;4857644;29;20045;-83
2022/01/20 14:40:55;;;;;;;13.20;2.15;;;;;;;;;;4854156;29;20053;-84
2022/01/20 14:43:24;;;;;;;15.45;1.90;;;;;;;;;;4857015;29;20049;-84
2022/01/20 14:45:52;;;;;;;13.85;2.30;;;;;;;;;;4869682;29;20140;-84
2022/01/20 14:48:20;;;;;;;17.05;2.25;;;;;;;;;;4869276;29;20053;-84
2022/01/20 14:50:47;;;;;;;11.73;2.13;;;;;;;;;;4864962;29;20057;-84
2022/01/20 14:53:14;;;;;;;13.38;1.98;;;;;;;;;;4868307;29;20506;-84
2022/01/20 14:55:41;;;;;;;14.95;2.15;;;;;;;;;;4851215;29;20963;-84
2022/01/20 14:58:08;;;;;;;17.95;2.53;;;;;;;;;;4863290;29;20474;-84
2022/01/20 15:00:36;;;;;;;17.08;2.83;;;;;;;;;;4863515;29;20529;-82
2022/01/20 15:03:04;;;;;;;;;;;;;;;;;;4865693;29;20118;-84
2022/01/20 15:05:32;;;;;;;13.85;1.88;;;;;;;;;;4850535;29;19935;-83
2022/01/20 15:08:00;;;;;;;16.40;1.70;;;;;;;;;;4868559;29;20056;-84
2022/01/20 15:10:27;;;;;;;12.02;2.20;;;;;;;;;;4870784;29;20053;-84
2022/01/20 15:13:00;;;;;;;16.60;2.78;;;;;;;;;;4872426;29;20096;-84
2022/01/20 15:15:28;;;;;;;11.38;1.70;;;;;;;;;;4848310;29;20052;-83
2022/01/20 15:17:57;;;;;;;14.70;2.65;;;;;;;;;;4866720;29;20049;-83
2022/01/20 15:20:44;;;;;;;12.00;1.95;;;;;;;;;;4871769;29;20517;-84
2022/01/20 15:23:11;;;;;;;16.48;2.75;;;;;;;;;;4855484;29;20052;-85
2022/01/20 15:25:37;;;;;;;9.30;1.63;;;;;;;;;;4856615;29;20053;-84
2022/01/20 15:28:05;;;;;;;14.27;2.25;;;;;;;;;;4872466;29;20060;-85
2022/01/20 15:30:32;;;;;;;10.80;2.65;;;;;;;;;;4872395;29;20722;-84
2022/01/20 15:32:59;;;;;;;14.10;2.33;;;;;;;;;;4872946;29;20041;-84
2022/01/20 15:35:26;;;;;;;13.38;2.38;;;;;;;;;;4864494;29;20134;-83
2022/01/20 15:37:52;;;;;;;15.93;2.53;;;;;;;;;;4855362;29;20120;-83
2022/01/20 15:40:20;;;;;;;12.13;2.28;;;;;;;;;;4872461;29;20060;-83
2022/01/20 15:42:47;;;;;;;13.93;2.00;;;;;;;;;;4873110;29;20049;-82
2022/01/20 15:45:14;;;;;;;14.55;2.38;;;;;;;;;;4871492;29;20045;-82
2022/01/20 15:47:41;;;;;;;11.40;2.15;;;;;;;;;;4872577;29;20088;-83
2022/01/20 15:50:14;;;;;;;9.88;2.47;;;;;;;;;;4872182;29;20044;-83
2022/01/20 15:52:41;;;;;;;13.85;2.60;;;;;;;;;;4870950;29;20057;-83
2022/01/20 15:55:10;;;;;;;16.08;2.30;;;;;;;;;;4868120;29;20054;-82
2022/01/20 15:57:36;;;;;;;;;;;;;;;;;;4872478;29;20059;-83
2022/01/20 16:00:10;;;;;;;13.35;2.50;;;;;;;;;;4872421;29;19935;-83
2022/01/20 16:02:37;;;;;;;11.90;1.98;;;;;;;;;;4856489;29;20509;-83
2022/01/20 16:05:09;;;;;;;15.85;1.90;;;;;;;;;;4854908;29;20171;-81
2022/01/20 16:07:36;;;;;;;12.80;2.22;;;;;;;;;;4871309;29;20077;-83
2022/01/20 16:10:03;;;;;;;11.55;1.88;;;;;;;;;;4870433;29;20135;-83
2022/01/20 16:12:30;;;;;;;10.48;1.83;;;;;;;;;;4840607;29;20101;-82
2022/01/20 16:14:57;;;;;;;16.15;2.30;;;;;;;;;;4843858;29;20049;-82
2022/01/20 16:17:24;;;;;;;14.23;2.38;;;;;;;;;;4854482;29;20055;-83
2022/01/20 16:19:51;;;;;;;14.15;2.20;;;;;;;;;;4872334;29;20467;-82
2022/01/20 16:22:18;;;;;;;14.05;2.95;;;;;;;;;;4872696;29;20057;-82
2022/01/20 16:24:45;;;;;;;14.07;2.58;;;;;;;;;;4865371;29;20049;-82
2022/01/20 16:27:12;;;;;;;13.80;2.88;;;;;;;;;;4871405;29;20056;-82
2022/01/20 16:29:39;;;;;;;16.92;2.33;;;;;;;;;;4854182;29;20485;-83
2022/01/20 16:32:06;;;;;;;15.70;2.92;;;;;;;;;;4871098;29;20526;-81
2022/01/20 16:34:33;;;;;;;15.50;2.67;;;;;;;;;;4871868;29;20068;-82
2022/01/20 16:37:01;;;;;;;17.55;2.40;;;;;;;;;;4870768;29;20045;-82
2022/01/20 16:39:28;;;;;;;12.40;2.13;;;;;;;;;;4853704;29;20057;-82
2022/01/20 16:41:54;;;;;;;20.30;2.67;;;;;;;;;;4870507;29;20526;-83
2022/01/20 16:44:21;;;;;;;23.80;2.33;;;;;;;;;;4868124;29;20056;-82
2022/01/20 16:46:48;;;;;;;11.60;2.15;;;;;;;;;;4859385;29;20053;-82
2022/01/20 16:49:15;;;;;;;14.00;2.28;;;;;;;;;;4857534;29;20094;-82
2022/01/20 16:51:42;;;;;;;12.88;2.00;;;;;;;;;;4859342;29;20152;-83
2022/01/20 16:54:09;;;;;;;11.93;2.10;;;;;;;;;;4860993;29;20061;-82
2022/01/20 16:56:35;;;;;;;17.05;2.53;;;;;;;;;;4861069;29;20057;-81
2022/01/20 16:59:04;;;;;;;15.98;3.22;;;;;;;;;;4860453;29;20060;-82
2022/01/20 17:01:31;;;;;;;15.25;3.15;;;;;;;;;;4857466;29;20124;-81
2022/01/20 17:03:58;;;;;;;15.77;2.47;;;;;;;;;;4860197;29;20057;-81
2022/01/20 17:06:25;;;;;;;15.02;2.90;;;;;;;;;;4851520;29;20057;-81
2022/01/20 17:08:51;;;;;;;17.92;2.80;;;;;;;;;;4852850;29;20056;-81
2022/01/20 17:11:18;;;;;;;18.88;5.78;;;;;;;;;;4841434;29;20085;-82
2022/01/20 17:13:45;;;;;;;21.52;3.38;;;;;;;;;;4824467;29;20054;-82
2022/01/20 17:16:12;;;;;;;20.67;4.18;;;;;;;;;;4843094;29;20049;-82
2022/01/20 17:18:40;;;;;;;17.27;3.90;;;;;;;;;;4839298;29;20114;-82
2022/01/20 17:21:07;;;;;;;17.70;3.72;;;;;;;;;;4847389;29;20073;-83
2022/01/20 17:23:34;;;;;;;15.73;4.57;;;;;;;;;;4854660;29;20101;-79
2022/01/20 17:26:02;;;;;;;18.05;5.18;;;;;;;;;;4854433;29;20097;-80
2022/01/20 17:28:29;;;;;;;15.63;3.20;;;;;;;;;;4855114;29;20065;-81
2022/01/20 17:30:56;;;;;;;15.55;3.40;;;;;;;;;;4854575;29;20129;-81
2022/01/20 17:33:23;;;;;;;20.48;4.50;;;;;;;;;;4837726;29;20046;-81
2022/01/20 17:35:51;;;;;;;19.10;3.53;;;;;;;;;;4853967;29;20085;-84
2022/01/20 17:38:18;;;;;;;15.23;3.22;;;;;;;;;;4849491;29;20053;-81
2022/01/20 17:40:47;;;;;;;19.88;3.50;;;;;;;;;;4839826;29;20600;-82
2022/01/20 17:43:16;;;;;;;18.83;3.28;;;;;;;;;;4841837;29;20522;-83
2022/01/20 17:45:44;;;;;;;19.17;3.22;;;;;;;;;;4824319;29;20061;-82
2022/01/20 17:48:11;;;;;;;17.27;2.88;;;;;;;;;;4837341;29;20050;-83
2022/01/20 17:50:38;;;;;;;15.63;2.65;;;;;;;;;;4841436;29;20049;-83
2022/01/20 17:53:04;;;;;;;15.25;2.55;;;;;;;;;;4839170;29;20053;-83
2022/01/20 17:55:32;;;;;;;19.52;2.67;;;;;;;;;;4837259;29;20065;-83
2022/01/20 17:58:04;;;;;;;17.40;2.67;;;;;;;;;;4839575;29;20102;-80
2022/01/20 18:00:30;;;;;;;19.73;3.38;;;;;;;;;;4841891;29;20133;-79
2022/01/20 18:02:57;;;;;;;15.10;2.65;;;;;;;;;;4844629;29;20440;-81
2022/01/20 18:05:24;;;;;;;16.48;2.80;;;;;;;;;;4834408;29;20049;-83
2022/01/20 18:07:51;;;;;;;22.95;3.53;;;;;;;;;;4851908;29;20037;-83
2022/01/20 18:10:18;;;;;;;18.95;2.70;;;;;;;;;;4837827;29;20091;-81
2022/01/20 18:12:46;;;;;;;12.48;2.67;;;;;;;;;;4852062;29;20061;-82
2022/01/20 18:15:13;;;;;;;14.23;2.47;;;;;;;;;;4851541;29;20065;-82
2022/01/20 18:17:44;;;;;;;10.48;3.15;;;;;;;;;;4858314;29;20511;-81
2022/01/20 18:20:13;;;;;;;24.45;3.00;;;;;;;;;;4853359;29;20045;-79
2022/01/20 18:22:40;;;;;;;12.15;3.60;;;;;;;;;;4857950;29;20080;-79
2022/01/20 18:25:08;;;;;;;17.40;3.30;;;;;;;;;;4857717;29;20743;-80
2022/01/20 18:27:38;;;;;;;15.52;3.17;;;;;;;;;;4861482;29;20077;-79
2022/01/20 18:30:12;;;;;;;17.80;2.45;;;;;;;;;;4858280;29;20053;-80
2022/01/20 18:32:39;;;;;;;14.82;2.58;;;;;;;;;;4841370;29;20045;-80
2022/01/20 18:35:07;;;;;;;18.95;3.47;;;;;;;;;;4857257;29;20053;-80
2022/01/20 18:37:35;;;;;;;17.25;3.00;;;;;;;;;;4856813;29;20050;-80
2022/01/20 18:40:09;;;;;;;18.75;3.10;;;;;;;;;;4869035;29;20057;-81
2022/01/20 18:42:36;;;;;;;20.40;2.85;;;;;;;;;;4865959;29;20049;-81
2022/01/20 18:45:04;;;;;;;17.35;2.80;;;;;;;;;;4865960;29;20554;-81
2022/01/20 18:47:32;;;;;;;19.05;5.05;;;;;;;;;;4861527;29;20543;-81
2022/01/20 18:49:58;;;;;;;22.90;6.90;;;;;;;;;;4824169;29;20426;-81
2022/01/20 18:52:26;;;;;;;17.13;3.67;;;;;;;;;;4848968;29;20074;-81
2022/01/20 18:54:56;;;;;;;19.85;3.15;;;;;;;;;;4849545;29;20057;-81
2022/01/20 18:57:23;;;;;;;16.77;3.55;;;;;;;;;;4855058;29;20136;-81
2022/01/20 18:59:50;;;;;;;15.45;4.03;;;;;;;;;;4853853;29;20054;-81
2022/01/20 19:02:17;;;;;;;18.70;3.58;;;;;;;;;;4853809;29;20405;-81
2022/01/20 19:04:44;;;;;;;15.60;3.38;;;;;;;;;;4863267;29;20057;-81
2022/01/20 19:07:11;;;;;;;14.98;3.65;;;;;;;;;;4861985;29;20056;-81
2022/01/20 19:09:43;;;;;;;18.13;3.72;;;;;;;;;;4857523;29;20112;-81
2022/01/20 19:12:11;;;;;;;18.48;3.97;;;;;;;;;;4852480;29;20037;-80
2022/01/20 19:14:38;;;;;;;24.25;3.78;;;;;;;;;;4851860;29;20061;-80
2022/01/20 19:17:05;;;;;;;15.98;3.10;;;;;;;;;;4852903;29;20080;-79
2022/01/20 19:19:32;;;;;;;19.38;3.67;;;;;;;;;;4854059;29;20780;-80
2022/01/20 19:22:05;;;;;;;22.08;4.78;;;;;;;;;;4851308;29;20053;-80
2022/01/20 19:24:33;;;;;;;15.30;4.03;;;;;;;;;;4853806;29;20113;-80
2022/01/20 19:27:04;;;;;;;23.85;4.60;;;;;;;;;;4853290;29;20895;-80
2022/01/20 19:29:32;;;;;;;15.30;3.28;;;;;;;;;;4853603;29;20057;-80
2022/01/20 19:31:59;;;;;;;19.85;3.60;;;;;;;;;;4853300;29;20054;-80
2022/01/20 19:34:26;;;;;;;23.33;4.03;;;;;;;;;;4843082;29;20114;-80
2022/01/20 19:36:55;;;;;;;20.90;3.45;;;;;;;;;;4842158;29;20083;-80
2022/01/20 19:39:22;;;;;;;20.55;4.28;;;;;;;;;;4842205;29;20456;-81
2022/01/20 19:41:49;;;;;;;16.40;3.38;;;;;;;;;;4843638;29;20113;-81
2022/01/20 19:44:16;;;;;;;18.48;3.85;;;;;;;;;;4839462;29;20046;-81
2022/01/20 19:46:43;;;;;;;19.67;3.83;;;;;;;;;;4842357;29;20065;-82
2022/01/20 19:49:09;;;;;;;13.75;3.28;;;;;;;;;;4841221;29;20540;-81
2022/01/20 19:51:39;;;;;;;21.15;3.67;;;;;;;;;;4837763;29;20114;-82
2022/01/20 19:54:06;;;;;;;18.90;3.63;;;;;;;;;;4839160;29;20111;-81
2022/01/20 19:56:33;;;;;;;19.02;3.78;;;;;;;;;;4839024;29;20061;-80
2022/01/20 19:59:00;;;;;;;16.42;3.40;;;;;;;;;;4837548;29;20081;-82
2022/01/20 20:01:29;;;;;;;27.65;3.53;;;;;;;;;;4833983;29;20058;-81
2022/01/20 20:03:57;;;;;;;17.77;3.53;;;;;;;;;;4850677;29;20435;-81
2022/01/20 20:06:23;;;;;;;17.52;3.58;;;;;;;;;;4845002;29;20049;-81
2022/01/20 20:08:51;;;;;;;18.17;3.30;;;;;;;;;;4847033;29;20925;-79
2022/01/20 20:11:18;;;;;;;18.30;3.10;;;;;;;;;;4853469;29;20041;-78
2022/01/20 20:13:48;;;;;;;22.10;4.15;;;;;;;;;;4852840;29;20058;-79
2022/01/20 20:16:17;;;;;;;25.77;4.20;;;;;;;;;;4853316;29;20113;-79
2022/01/20 20:18:44;;;;;;;;;;;;;;;;;;4854743;29;20053;-79
2022/01/20 20:21:12;;;;;;;24.63;3.58;;;;;;;;;;4836530;29;19975;-78
2022/01/20 20:23:39;;;;;;;14.23;3.25;;;;;;;;;;4835554;29;20054;-79
2022/01/20 20:26:06;;;;;;;25.02;4.47;;;;;;;;;;4841650;29;20077;-79
2022/01/20 20:28:32;;;;;;;14.75;3.33;;;;;;;;;;4833611;29;20050;-80
2022/01/20 20:30:59;;;;;;;18.08;3.67;;;;;;;;;;4838907;29;20107;-79
2022/01/20 20:33:26;;;;;;;25.23;4.38;;;;;;;;;;4840494;29;20507;-80
2022/01/20 20:35:53;;;;;;;19.33;4.22;;;;;;;;;;4844071;29;20064;-80
2022/01/20 20:38:20;;;;;;;20.58;3.55;;;;;;;;;;4823300;29;20125;-77
2022/01/20 20:40:47;;;;;;;20.42;3.67;;;;;;;;;;4840733;29;20074;-78
2022/01/20 20:43:13;;;;;;;24.80;4.03;;;;;;;;;;4840144;29;20482;-79
2022/01/20 20:45:40;;;;;;;24.33;4.40;;;;;;;;;;4841941;29;20054;-78
2022/01/20 20:48:06;;;;;;;14.73;3.70;;;;;;;;;;4843334;29;20084;-79
2022/01/20 20:50:33;;;;;;;18.30;3.70;;;;;;;;;;4840100;29;20054;-78
2022/01/20 20:53:00;;;;;;;22.73;3.85;;;;;;;;;;4839471;29;20101;-78
2022/01/20 20:55:27;;;;;;;19.30;3.40;;;;;;;;;;4838671;29;20053;-78
2022/01/20 20:57:54;;;;;;;23.05;4.13;;;;;;;;;;4836817;29;20085;-78
2022/01/20 21:00:21;;;;;;;19.67;3.30;;;;;;;;;;4856530;29;20048;-78
2022/01/20 21:02:48;;;;;;;13.80;3.28;;;;;;;;;;4841995;29;20105;-78
2022/01/20 21:05:15;;;;;;;18.83;4.13;;;;;;;;;;4846170;29;20503;-78
2022/01/20 21:07:44;;;;;;;19.73;4.60;;;;;;;;;;4839011;29;20476;-77
2022/01/20 21:10:12;;;;;;;15.95;3.80;;;;;;;;;;4837220;29;20057;-80
2022/01/20 21:12:39;;;;;;;19.13;3.35;;;;;;;;;;4838257;29;20099;-78
2022/01/20 21:15:06;;;;;;;22.15;3.60;;;;;;;;;;4823081;29;20628;-78
2022/01/20 21:17:33;;;;;;;19.75;3.47;;;;;;;;;;4842546;29;20155;-77
2022/01/20 21:20:01;;;;;;;16.90;3.47;;;;;;;;;;4840754;29;20049;-78
2022/01/20 21:22:28;;;;;;;16.65;3.70;;;;;;;;;;4840635;29;20125;-78
2022/01/20 21:24:55;;;;;;;14.55;3.78;;;;;;;;;;4848664;29;20472;-77
2022/01/20 21:27:21;;;;;;;17.38;3.70;;;;;;;;;;4835826;29;20053;-78